Ironton, Indiana
Current Conditions -  °F | °C
As of 9:55 PM on Thursday 18 Dec 2014 (Local Time) from KDCY Reporting Station
Overcast Overcast  
Wind Chill: 29°   Ceiling: 5000
Heat Index: 29°   Visibility: 10mi
Dew Point: 23°   Wind: 3mph
Humidity: 78%   Direction: 350°N
Pressure: 30.28"   Gusts: NA
Location:  38.6262°N, 86.7615°W
Report Text: KDCY 190355Z AUTO 35003KT 10SM BKN050 OVC080 M02/M05 A3028 RMK AO2 T10161050
Loading
Personal Weather Stations






























Interactive Weather Map New forecast layout! Learn more

10-Day Weather Forecast

Advertisements
Track Severe Weather on mobile